Time;durP1;ratioP1;P1;durP2;ratioP2;P2;SDS_P1;SDS_P2;PMS_P1;PMS_P2;Temp;Humidity;BMP_temperature;BMP_pressure;BME280_temperature;BME280_humidity;BME280_pressure;Samples;Min_cycle;Max_cycle;Signal;HPM_P1;HPM_P2
2020/12/08 00:01:28;;;;;;;12.63;6.57;;;2.40;99.90;;;;;;4987943;28;20085;-76
2020/12/08 00:03:54;;;;;;;9.68;6.25;;;2.40;99.90;;;;;;4991305;28;20037;-76
2020/12/08 00:06:20;;;;;;;9.32;4.93;;;2.30;99.90;;;;;;4973977;28;20113;-74
2020/12/08 00:08:46;;;;;;;10.88;5.45;;;2.30;99.90;;;;;;4991232;28;20034;-76
2020/12/08 00:11:16;;;;;;;7.50;4.82;;;2.30;99.90;;;;;;4993607;28;20115;-76
2020/12/08 00:13:44;;;;;;;8.02;4.90;;;2.30;99.90;;;;;;5006082;28;20041;-76
2020/12/08 00:16:11;;;;;;;8.82;4.90;;;2.30;99.90;;;;;;4992127;28;20030;-76
2020/12/08 00:18:37;;;;;;;9.10;5.05;;;2.30;99.90;;;;;;4992024;28;20117;-76
2020/12/08 00:21:03;;;;;;;8.60;4.45;;;2.30;99.90;;;;;;4985710;28;20022;-76
2020/12/08 00:23:28;;;;;;;7.57;4.90;;;2.30;99.90;;;;;;4989282;28;20394;-76
2020/12/08 00:25:54;;;;;;;10.45;5.35;;;2.30;99.90;;;;;;4982514;28;20078;-76
2020/12/08 00:28:20;;;;;;;10.30;5.55;;;2.30;99.90;;;;;;4991841;28;20088;-76
2020/12/08 00:30:45;;;;;;;8.05;5.00;;;2.30;99.90;;;;;;4991468;28;20030;-76
2020/12/08 00:33:11;;;;;;;7.80;4.70;;;2.30;99.90;;;;;;4990839;28;20484;-76
2020/12/08 00:35:37;;;;;;;12.38;4.88;;;2.30;99.90;;;;;;4991459;28;20173;-76
2020/12/08 00:38:03;;;;;;;8.15;4.57;;;2.30;99.90;;;;;;4991927;28;20030;-76
2020/12/08 00:40:28;;;;;;;10.00;5.07;;;2.30;99.90;;;;;;4989733;28;20049;-76
2020/12/08 00:42:54;;;;;;;7.53;4.60;;;2.20;99.90;;;;;;4997628;28;20037;-76
2020/12/08 00:45:20;;;;;;;8.32;4.93;;;2.20;99.90;;;;;;4991768;28;20030;-76
2020/12/08 00:47:48;;;;;;;10.48;5.70;;;2.30;99.90;;;;;;4974540;28;20092;-76
2020/12/08 00:50:14;;;;;;;9.38;4.63;;;2.30;99.90;;;;;;4956753;28;20026;-76
2020/12/08 00:52:40;;;;;;;9.80;4.75;;;2.30;99.90;;;;;;5005930;28;20026;-76
2020/12/08 00:55:11;;;;;;;9.32;4.80;;;2.30;99.90;;;;;;4962491;28;20030;-76
2020/12/08 00:57:40;;;;;;;8.43;4.85;;;2.30;99.90;;;;;;4974298;28;20030;-76
2020/12/08 01:00:09;;;;;;;8.65;4.50;;;2.30;99.90;;;;;;4974124;28;20054;-76
2020/12/08 01:02:40;;;;;;;7.53;4.45;;;2.20;99.90;;;;;;4963362;28;20061;-76
2020/12/08 01:05:11;;;;;;;8.73;4.72;;;2.30;99.90;;;;;;4974061;28;20085;-76
2020/12/08 01:07:40;;;;;;;9.15;5.20;;;2.30;99.90;;;;;;4974263;28;20042;-77
2020/12/08 01:10:07;;;;;;;9.20;5.47;;;2.30;99.90;;;;;;4972477;28;20037;-77
2020/12/08 01:12:34;;;;;;;9.50;5.18;;;2.30;99.90;;;;;;4987110;28;20034;-77
2020/12/08 01:14:59;;;;;;;8.52;4.85;;;2.30;99.90;;;;;;4979075;28;20073;-77
2020/12/08 01:17:32;;;;;;;8.18;4.80;;;2.30;99.90;;;;;;4974099;28;20064;-76
2020/12/08 01:19:58;;;;;;;10.13;5.22;;;2.30;99.90;;;;;;4954795;28;20416;-76
2020/12/08 01:22:23;;;;;;;10.82;5.63;;;2.30;99.90;;;;;;4985521;28;20041;-76
2020/12/08 01:24:49;;;;;;;9.73;5.55;;;2.30;99.90;;;;;;4991157;28;20042;-76
2020/12/08 01:27:15;;;;;;;9.98;5.97;;;2.30;99.90;;;;;;4974071;28;20556;-76
2020/12/08 01:29:42;;;;;;;7.97;4.65;;;2.30;99.90;;;;;;4972123;28;20034;-76
2020/12/08 01:32:08;;;;;;;8.93;5.15;;;2.40;99.90;;;;;;4967186;28;20026;-76
2020/12/08 01:34:37;;;;;;;10.07;5.10;;;2.30;99.90;;;;;;4982112;28;20073;-76
2020/12/08 01:37:04;;;;;;;10.05;5.65;;;2.30;99.90;;;;;;4945234;28;20030;-76
2020/12/08 01:39:31;;;;;;;10.20;5.43;;;2.30;99.90;;;;;;4961432;28;20030;-76
2020/12/08 01:41:57;;;;;;;12.02;6.30;;;2.30;99.90;;;;;;4973338;28;20053;-76
2020/12/08 01:44:25;;;;;;;12.32;6.55;;;2.30;99.90;;;;;;4977335;28;20041;-76
2020/12/08 01:46:51;;;;;;;11.75;6.47;;;2.30;99.90;;;;;;4976884;28;20034;-76
2020/12/08 01:49:18;;;;;;;11.13;6.40;;;2.30;99.90;;;;;;4975577;28;20460;-77
2020/12/08 01:51:44;;;;;;;9.00;5.03;;;2.30;99.90;;;;;;4983756;28;20188;-76
2020/12/08 01:54:11;;;;;;;9.18;4.68;;;2.30;99.90;;;;;;4988648;28;20026;-76
2020/12/08 01:56:43;;;;;;;11.27;6.05;;;2.30;99.90;;;;;;4962111;28;20034;-76
2020/12/08 01:59:10;;;;;;;8.68;4.85;;;2.30;99.90;;;;;;4957950;28;20030;-77
2020/12/08 02:01:41;;;;;;;10.48;5.55;;;2.30;99.90;;;;;;4970026;28;20031;-76
2020/12/08 02:04:08;;;;;;;10.45;5.50;;;2.30;99.90;;;;;;4955934;28;20382;-76
2020/12/08 02:06:35;;;;;;;10.55;5.25;;;2.30;99.90;;;;;;4973263;28;20030;-76
2020/12/08 02:09:01;;;;;;;8.10;4.32;;;2.30;99.90;;;;;;4990838;28;20042;-75
2020/12/08 02:11:31;;;;;;;7.65;4.65;;;2.30;99.90;;;;;;4963141;28;20034;-76
2020/12/08 02:13:57;;;;;;;8.52;5.18;;;2.30;99.90;;;;;;4987059;28;20127;-76
2020/12/08 02:16:23;;;;;;;7.78;4.50;;;2.30;99.90;;;;;;4957760;28;20503;-76
2020/12/08 02:18:52;;;;;;;7.65;4.25;;;2.30;99.90;;;;;;4968314;28;20036;-76
2020/12/08 02:21:18;;;;;;;12.90;6.13;;;2.30;99.90;;;;;;4973402;28;20046;-76
2020/12/08 02:23:52;;;;;;;11.70;6.28;;;2.30;99.90;;;;;;4976518;28;20037;-76
2020/12/08 02:26:25;;;;;;;10.60;5.82;;;2.40;99.90;;;;;;4976778;28;20038;-76
2020/12/08 02:28:52;;;;;;;10.88;5.90;;;2.40;99.90;;;;;;4974651;28;20030;-76
2020/12/08 02:31:20;;;;;;;9.98;5.60;;;2.30;99.90;;;;;;4978847;28;20656;-76
2020/12/08 02:33:46;;;;;;;8.02;4.38;;;2.30;99.90;;;;;;5007322;28;20117;-76
2020/12/08 02:36:12;;;;;;;6.38;3.90;;;2.30;99.90;;;;;;4976762;28;20546;-76
2020/12/08 02:38:38;;;;;;;5.72;3.65;;;2.30;99.90;;;;;;4976563;28;20026;-76
2020/12/08 02:41:05;;;;;;;5.70;3.63;;;2.30;99.90;;;;;;4973264;28;20033;-76
2020/12/08 02:43:32;;;;;;;6.47;3.50;;;2.20;99.90;;;;;;4960167;28;20030;-77
2020/12/08 02:45:59;;;;;;;6.38;3.25;;;2.30;99.90;;;;;;4975716;28;20027;-77
2020/12/08 02:48:25;;;;;;;6.88;3.78;;;2.20;99.90;;;;;;4975734;28;20038;-76
2020/12/08 02:50:51;;;;;;;5.90;3.58;;;2.20;99.90;;;;;;4973265;28;20025;-76
2020/12/08 02:53:18;;;;;;;5.32;3.38;;;2.20;99.90;;;;;;4991702;28;20133;-76
2020/12/08 02:55:46;;;;;;;7.60;4.05;;;2.20;99.90;;;;;;4956637;28;20035;-76
2020/12/08 02:58:12;;;;;;;6.90;3.60;;;2.20;99.90;;;;;;4971646;28;20031;-76
2020/12/08 03:00:39;;;;;;;7.15;4.00;;;2.10;99.90;;;;;;4971703;28;20113;-76
2020/12/08 03:03:04;;;;;;;7.72;4.10;;;2.10;99.90;;;;;;4993552;28;20049;-77
2020/12/08 03:05:30;;;;;;;7.97;4.15;;;2.10;99.90;;;;;;4975660;28;20026;-76
2020/12/08 03:07:57;;;;;;;6.35;3.50;;;2.10;99.90;;;;;;4976113;28;20507;-77
2020/12/08 03:10:23;;;;;;;6.40;3.72;;;2.10;99.90;;;;;;4974603;28;20042;-76
2020/12/08 03:12:49;;;;;;;6.55;3.80;;;2.10;99.90;;;;;;4979120;28;20092;-77
2020/12/08 03:15:14;;;;;;;6.40;3.90;;;2.10;99.90;;;;;;4979152;28;20037;-76
2020/12/08 03:17:42;;;;;;;7.78;4.40;;;2.00;99.90;;;;;;4975688;28;20496;-76
2020/12/08 03:20:11;;;;;;;8.35;4.30;;;2.00;99.90;;;;;;4975774;28;20042;-76
2020/12/08 03:22:43;;;;;;;6.47;4.07;;;2.00;99.90;;;;;;4972499;28;20505;-76
2020/12/08 03:25:11;;;;;;;7.55;4.43;;;2.00;99.90;;;;;;4943773;28;20065;-76
2020/12/08 03:27:37;;;;;;;8.45;4.35;;;2.00;99.90;;;;;;4959496;28;20068;-76
2020/12/08 03:30:05;;;;;;;9.80;5.07;;;2.00;99.90;;;;;;4958019;28;20108;-76
2020/12/08 03:32:31;;;;;;;10.25;5.57;;;2.00;99.90;;;;;;4985947;28;20403;-76
2020/12/08 03:34:57;;;;;;;9.02;4.82;;;2.00;99.90;;;;;;4981012;28;20026;-77
2020/12/08 03:37:23;;;;;;;8.32;4.63;;;2.00;99.90;;;;;;4940415;28;20049;-76
2020/12/08 03:39:52;;;;;;;7.82;4.68;;;2.00;99.90;;;;;;4963996;28;20043;-76
2020/12/08 03:42:20;;;;;;;8.75;4.82;;;2.00;99.90;;;;;;4972127;28;20034;-77
2020/12/08 03:44:46;;;;;;;8.88;5.18;;;2.00;99.90;;;;;;4969456;28;20034;-77
2020/12/08 03:47:24;;;;;;;11.82;5.50;;;1.90;99.90;;;;;;4975114;28;20532;-76
2020/12/08 03:49:50;;;;;;;9.10;4.85;;;1.90;99.90;;;;;;4991486;28;20037;-76
2020/12/08 03:52:15;;;;;;;10.23;5.30;;;1.90;99.90;;;;;;4986197;28;20440;-76
2020/12/08 03:54:42;;;;;;;9.40;4.97;;;1.90;99.90;;;;;;4982855;28;20401;-76
2020/12/08 03:57:11;;;;;;;9.20;5.03;;;1.90;99.90;;;;;;4975074;28;20394;-76
2020/12/08 03:59:38;;;;;;;9.32;4.28;;;1.80;99.90;;;;;;4974055;28;20038;-76
2020/12/08 04:02:09;;;;;;;10.80;5.78;;;1.80;99.90;;;;;;4968298;28;20035;-76
2020/12/08 04:04:34;;;;;;;8.10;5.03;;;1.70;99.90;;;;;;4974961;28;20031;-76
2020/12/08 04:07:01;;;;;;;10.35;5.57;;;1.60;99.90;;;;;;4971157;28;20066;-77
2020/12/08 04:09:26;;;;;;;10.93;6.13;;;1.60;99.90;;;;;;4957725;28;20030;-77
2020/12/08 04:11:53;;;;;;;12.77;6.68;;;1.50;99.90;;;;;;4983915;28;20099;-77
2020/12/08 04:14:18;;;;;;;9.25;5.25;;;1.40;99.90;;;;;;4985541;28;20038;-77
2020/12/08 04:16:47;;;;;;;9.48;5.05;;;1.40;99.90;;;;;;4974912;28;20404;-77
2020/12/08 04:19:16;;;;;;;12.50;5.55;;;1.30;99.90;;;;;;4958847;28;20034;-77
2020/12/08 04:21:43;;;;;;;10.82;5.57;;;1.30;99.90;;;;;;4953633;28;20035;-76
2020/12/08 04:24:28;;;;;;;10.35;5.53;;;1.20;99.90;;;;;;4966020;28;20030;-76
2020/12/08 04:26:55;;;;;;;9.38;5.10;;;1.10;99.90;;;;;;4970399;28;20073;-77
2020/12/08 04:29:31;;;;;;;8.90;5.47;;;1.10;99.90;;;;;;4973510;28;20094;-76
2020/12/08 04:31:58;;;;;;;10.60;5.43;;;1.00;99.90;;;;;;4967324;28;20030;-76
2020/12/08 04:34:23;;;;;;;10.82;5.85;;;1.00;99.90;;;;;;4985467;28;20048;-77
2020/12/08 04:36:49;;;;;;;8.98;5.28;;;0.90;99.90;;;;;;4991871;28;20026;-76
2020/12/08 04:39:15;;;;;;;12.35;6.10;;;0.80;99.90;;;;;;4991648;28;20061;-76
2020/12/08 04:41:41;;;;;;;11.27;6.45;;;0.80;99.90;;;;;;4988366;28;20034;-75
2020/12/08 04:44:08;;;;;;;10.70;5.88;;;0.80;99.90;;;;;;4992100;28;20101;-76
2020/12/08 04:46:34;;;;;;;11.30;6.32;;;0.70;99.90;;;;;;4954547;28;20050;-77
2020/12/08 04:49:00;;;;;;;12.32;6.28;;;0.70;99.90;;;;;;4972193;28;20409;-77
2020/12/08 04:51:26;;;;;;;14.10;6.68;;;0.60;99.90;;;;;;4962583;28;20172;-77
2020/12/08 04:53:54;;;;;;;12.00;6.18;;;0.60;99.90;;;;;;4988600;28;20039;-77
2020/12/08 04:56:19;;;;;;;12.18;6.38;;;0.60;99.90;;;;;;4991872;28;20088;-76
2020/12/08 04:58:45;;;;;;;13.15;6.82;;;0.50;99.90;;;;;;4991613;28;20026;-76
2020/12/08 05:01:25;;;;;;;13.55;6.63;;;0.50;99.90;;;;;;4988087;28;20029;-77
2020/12/08 05:04:01;;;;;;;11.50;6.30;;;0.50;99.90;;;;;;4992738;28;20109;-76
2020/12/08 05:06:28;;;;;;;10.40;5.88;;;0.40;99.90;;;;;;4990864;28;20049;-76
2020/12/08 05:09:01;;;;;;;11.27;5.35;;;0.40;99.90;;;;;;4991578;28;20027;-76
2020/12/08 05:11:28;;;;;;;10.20;5.72;;;0.30;99.90;;;;;;4998172;28;20542;-76
2020/12/08 05:14:11;;;;;;;12.05;5.85;;;0.30;99.90;;;;;;5009715;28;20027;-76
2020/12/08 05:16:37;;;;;;;10.32;5.82;;;0.30;99.90;;;;;;4977876;28;20026;-76
2020/12/08 05:19:06;;;;;;;11.57;5.45;;;0.20;99.90;;;;;;4989215;28;20072;-77
2020/12/08 05:21:32;;;;;;;13.23;6.35;;;0.20;99.90;;;;;;4982364;28;20084;-77
2020/12/08 05:23:58;;;;;;;10.98;5.50;;;0.10;99.90;;;;;;4978188;28;20109;-77
2020/12/08 05:26:24;;;;;;;12.57;6.43;;;0.10;99.90;;;;;;4995055;28;20467;-76
2020/12/08 05:28:59;;;;;;;9.43;5.65;;;0.10;99.90;;;;;;4995083;28;20042;-76
2020/12/08 05:31:26;;;;;;;10.52;5.85;;;0.00;99.90;;;;;;4998718;28;20060;-74
2020/12/08 05:33:58;;;;;;;12.32;5.10;;;0.00;99.90;;;;;;5010119;28;20492;-76
2020/12/08 05:36:26;;;;;;;12.90;6.45;;;0.00;99.90;;;;;;4982885;28;20382;-76
2020/12/08 05:41:21;;;;;;;12.55;6.47;;;-0.10;99.90;;;;;;4987992;28;20408;-77
2020/12/08 05:43:47;;;;;;;12.15;5.90;;;-0.10;99.90;;;;;;5017592;28;20084;-76
2020/12/08 05:46:17;;;;;;;12.63;6.38;;;-0.10;99.90;;;;;;5027301;28;20050;-78
2020/12/08 05:48:43;;;;;;;12.88;6.60;;;-0.10;99.90;;;;;;4995190;28;20122;-77
2020/12/08 05:51:08;;;;;;;9.40;5.75;;;-0.20;99.90;;;;;;4953630;28;20446;-78
2020/12/08 05:53:34;;;;;;;13.13;6.35;;;-0.20;99.90;;;;;;4957517;28;20049;-77
2020/12/08 05:56:07;;;;;;;11.70;5.88;;;-0.30;99.90;;;;;;4941879;28;20066;-77
2020/12/08 05:58:34;;;;;;;10.98;6.20;;;-0.30;99.90;;;;;;4957991;28;20042;-77
2020/12/08 06:01:03;;;;;;;9.95;5.90;;;-0.30;99.90;;;;;;4942446;28;20392;-78
2020/12/08 06:03:28;;;;;;;9.27;5.50;;;-0.30;99.90;;;;;;4990467;28;20035;-78
2020/12/08 06:06:06;;;;;;;10.93;5.78;;;-0.40;99.90;;;;;;4974081;28;20046;-77
2020/12/08 06:08:47;;;;;;;11.10;5.50;;;-0.40;99.90;;;;;;4975565;28;20412;-77
2020/12/08 06:11:14;;;;;;;12.57;5.82;;;-0.40;99.90;;;;;;4970585;28;20035;-77
2020/12/08 06:13:47;;;;;;;14.13;6.88;;;-0.40;99.90;;;;;;4987244;28;20054;-78
2020/12/08 06:16:21;;;;;;;11.82;6.57;;;-0.40;99.90;;;;;;4990199;28;20030;-78
2020/12/08 06:18:48;;;;;;;11.25;5.85;;;-0.40;99.90;;;;;;4973812;28;20115;-77
2020/12/08 06:21:18;;;;;;;11.48;5.80;;;-0.50;99.90;;;;;;4954321;28;20034;-77
2020/12/08 06:23:50;;;;;;;14.45;7.10;;;-0.50;99.90;;;;;;4991553;28;20039;-78
2020/12/08 06:26:27;;;;;;;20.20;9.38;;;-0.50;99.90;;;;;;4975295;28;20473;-78
2020/12/08 06:28:53;;;;;;;14.82;6.88;;;-0.50;99.90;;;;;;4977503;28;20027;-79
2020/12/08 06:31:20;;;;;;;14.82;6.85;;;-0.50;99.90;;;;;;4971470;28;20031;-79
2020/12/08 06:33:54;;;;;;;16.67;7.78;;;-0.40;99.90;;;;;;4983444;28;20050;-79
2020/12/08 06:36:23;;;;;;;16.63;8.23;;;-0.40;99.90;;;;;;4977818;28;20033;-79
2020/12/08 06:38:59;;;;;;;16.05;7.43;;;-0.40;99.90;;;;;;4977927;28;20027;-78
2020/12/08 06:41:30;;;;;;;15.18;8.13;;;-0.40;99.90;;;;;;4975969;28;20031;-79
2020/12/08 06:43:55;;;;;;;16.20;7.38;;;-0.50;99.90;;;;;;4975962;28;20037;-79
2020/12/08 06:46:21;;;;;;;13.52;7.28;;;-0.50;99.90;;;;;;4976204;28;20393;-78
2020/12/08 06:49:01;;;;;;;13.38;7.32;;;-0.50;99.90;;;;;;4976459;28;20437;-79
2020/12/08 06:51:28;;;;;;;18.33;8.25;;;-0.60;99.90;;;;;;4958975;28;20039;-79
2020/12/08 06:53:54;;;;;;;15.27;8.00;;;-0.60;99.90;;;;;;4962571;28;20033;-79
2020/12/08 06:56:31;;;;;;;16.52;7.60;;;-0.60;99.90;;;;;;4943531;28;20102;-79
2020/12/08 06:58:57;;;;;;;17.92;8.70;;;-0.60;99.90;;;;;;4992004;28;20052;-79
2020/12/08 07:01:23;;;;;;;17.75;8.07;;;-0.60;99.90;;;;;;4974861;28;20432;-77
2020/12/08 07:03:50;;;;;;;17.52;8.90;;;-0.60;99.90;;;;;;4958563;28;20042;-79
2020/12/08 07:06:16;;;;;;;21.70;9.13;;;-0.60;99.90;;;;;;4990983;28;20485;-77
2020/12/08 07:08:47;;;;;;;14.63;7.82;;;-0.50;99.90;;;;;;4959068;28;20027;-78
2020/12/08 07:11:20;;;;;;;20.60;8.82;;;-0.50;99.90;;;;;;4975633;28;20023;-79
2020/12/08 07:14:04;;;;;;;17.90;8.20;;;-0.50;99.90;;;;;;4990140;28;20062;-79
2020/12/08 07:16:33;;;;;;;16.60;7.95;;;-0.50;99.90;;;;;;4974053;28;20041;-78
2020/12/08 07:19:00;;;;;;;16.63;8.20;;;-0.50;99.90;;;;;;4974178;28;20082;-78
2020/12/08 07:21:26;;;;;;;16.38;7.90;;;-0.50;99.90;;;;;;4972417;28;20070;-77
2020/12/08 07:23:54;;;;;;;18.13;8.40;;;-0.50;99.90;;;;;;4973782;28;20027;-77
2020/12/08 07:26:30;;;;;;;19.40;8.60;;;-0.50;99.90;;;;;;4972976;28;20083;-76
2020/12/08 07:28:58;;;;;;;16.80;7.78;;;-0.50;99.90;;;;;;4970108;28;20031;-76
2020/12/08 07:31:26;;;;;;;17.45;8.43;;;-0.50;99.90;;;;;;4983090;28;20081;-77
2020/12/08 07:33:52;;;;;;;16.40;8.13;;;-0.50;99.90;;;;;;4957607;28;20476;-77
2020/12/08 07:36:25;;;;;;;20.52;9.65;;;-0.40;99.90;;;;;;4988889;28;20097;-77
2020/12/08 07:38:55;;;;;;;18.08;8.68;;;-0.50;99.90;;;;;;4989029;28;20037;-77
2020/12/08 07:41:22;;;;;;;16.77;8.27;;;-0.50;99.90;;;;;;4958603;28;20043;-77
2020/12/08 07:43:48;;;;;;;16.73;7.75;;;-0.40;99.90;;;;;;4971709;28;20038;-77
2020/12/08 07:46:29;;;;;;;17.17;8.85;;;-0.40;99.90;;;;;;4993777;28;20573;-77
2020/12/08 07:49:10;;;;;;;17.90;8.40;;;-0.40;99.90;;;;;;4953395;28;20125;-76
2020/12/08 07:51:38;;;;;;;16.40;7.95;;;-0.30;99.90;;;;;;4966088;28;20170;-77
2020/12/08 07:54:05;;;;;;;19.50;9.20;;;-0.20;99.90;;;;;;4973949;28;20023;-77
2020/12/08 07:56:32;;;;;;;18.00;8.15;;;-0.20;99.90;;;;;;4987469;28;20405;-77
2020/12/08 07:58:59;;;;;;;16.35;7.85;;;-0.20;99.90;;;;;;4969208;28;20019;-77
2020/12/08 08:01:25;;;;;;;16.88;8.25;;;-0.20;99.90;;;;;;4971579;28;20027;-77
2020/12/08 08:03:51;;;;;;;17.77;9.73;;;0.00;99.90;;;;;;4972593;28;20026;-77
2020/12/08 08:06:20;;;;;;;18.85;8.40;;;0.10;99.90;;;;;;4970251;28;20043;-77
2020/12/08 08:08:47;;;;;;;19.50;8.45;;;0.30;99.90;;;;;;4968234;28;20125;-77
2020/12/08 08:11:13;;;;;;;17.50;8.73;;;0.40;99.90;;;;;;4960813;28;20089;-77
2020/12/08 08:13:39;;;;;;;14.25;8.15;;;0.50;99.90;;;;;;4969746;28;20030;-77
2020/12/08 08:16:12;;;;;;;15.25;8.43;;;0.70;99.90;;;;;;4988184;28;20526;-78
2020/12/08 08:18:39;;;;;;;13.40;7.25;;;0.80;99.90;;;;;;4972269;28;20031;-77
2020/12/08 08:21:05;;;;;;;16.92;8.75;;;1.00;99.90;;;;;;4987490;28;20039;-77
2020/12/08 08:23:31;;;;;;;14.02;7.63;;;1.10;99.90;;;;;;4969756;28;20045;-77
2020/12/08 08:25:57;;;;;;;19.55;8.30;;;1.20;99.90;;;;;;4988020;28;20064;-77
2020/12/08 08:28:23;;;;;;;16.08;7.93;;;1.20;99.90;;;;;;4973189;28;20042;-77
2020/12/08 08:30:49;;;;;;;16.60;8.73;;;1.30;99.90;;;;;;4972709;28;20034;-76
2020/12/08 08:33:15;;;;;;;13.98;7.38;;;1.30;99.90;;;;;;4958623;28;20113;-77
2020/12/08 08:35:41;;;;;;;14.43;7.35;;;1.30;99.90;;;;;;4972850;28;20027;-76
2020/12/08 08:38:07;;;;;;;17.83;7.47;;;1.30;99.90;;;;;;4972991;28;20031;-76
2020/12/08 08:40:32;;;;;;;15.80;7.18;;;1.40;99.90;;;;;;4972175;28;20039;-76
2020/12/08 08:42:59;;;;;;;13.00;7.32;;;1.50;99.90;;;;;;4958345;28;20045;-76
2020/12/08 08:45:25;;;;;;;15.23;7.30;;;1.50;99.90;;;;;;4972833;28;20359;-76
2020/12/08 08:47:51;;;;;;;15.05;7.45;;;1.60;99.90;;;;;;4971830;28;20038;-76
2020/12/08 08:50:17;;;;;;;17.27;8.57;;;1.70;99.90;;;;;;4971485;28;20118;-77
2020/12/08 08:52:43;;;;;;;15.52;8.00;;;1.90;99.90;;;;;;4967487;28;20038;-77
2020/12/08 08:55:10;;;;;;;15.05;7.25;;;2.00;99.90;;;;;;4986668;28;20392;-76
2020/12/08 08:57:37;;;;;;;15.10;7.10;;;2.20;99.90;;;;;;4971088;28;20077;-77
2020/12/08 09:00:09;;;;;;;13.43;7.38;;;2.20;99.90;;;;;;4972163;28;20031;-77
2020/12/08 09:02:35;;;;;;;14.82;7.68;;;2.40;99.90;;;;;;4968327;28;20607;-76
2020/12/08 09:05:02;;;;;;;14.93;7.68;;;2.40;99.90;;;;;;4970646;28;20035;-76
2020/12/08 09:07:29;;;;;;;14.18;7.55;;;2.50;99.90;;;;;;4955923;28;20102;-77
2020/12/08 09:09:58;;;;;;;12.85;7.43;;;2.50;99.90;;;;;;4952707;28;20115;-76
2020/12/08 09:12:24;;;;;;;13.70;7.22;;;2.60;99.90;;;;;;4970786;28;20037;-77
2020/12/08 09:14:52;;;;;;;12.77;7.15;;;2.60;99.90;;;;;;4971439;28;20062;-77
2020/12/08 09:17:18;;;;;;;13.18;7.05;;;2.60;99.90;;;;;;4972417;28;20030;-76
2020/12/08 09:19:44;;;;;;;15.35;7.80;;;2.70;99.90;;;;;;4971559;28;20031;-76
2020/12/08 09:22:09;;;;;;;12.93;7.72;;;2.70;99.90;;;;;;4970964;28;20508;-76
2020/12/08 09:24:35;;;;;;;15.85;7.50;;;2.70;99.90;;;;;;4972058;28;20022;-76
2020/12/08 09:27:03;;;;;;;13.25;7.35;;;2.70;99.90;;;;;;4971353;28;20153;-76
2020/12/08 09:29:29;;;;;;;13.80;7.00;;;2.70;99.90;;;;;;4972418;28;20046;-76
2020/12/08 09:31:56;;;;;;;13.40;6.72;;;2.80;99.90;;;;;;4956678;28;20035;-76
2020/12/08 09:34:22;;;;;;;14.50;7.25;;;2.80;99.90;;;;;;4966634;28;20207;-77
2020/12/08 09:36:49;;;;;;;15.50;7.50;;;2.80;99.90;;;;;;4977386;28;20030;-77
2020/12/08 09:39:15;;;;;;;14.10;6.90;;;2.80;99.90;;;;;;4973163;28;20065;-77
2020/12/08 09:41:43;;;;;;;12.35;6.70;;;2.80;99.90;;;;;;4985636;28;20046;-77
2020/12/08 09:44:10;;;;;;;12.07;6.90;;;2.80;99.90;;;;;;4973250;28;20034;-77
2020/12/08 09:46:43;;;;;;;14.23;7.30;;;2.80;99.90;;;;;;4972824;28;20042;-77
2020/12/08 09:49:09;;;;;;;13.80;6.72;;;2.90;99.90;;;;;;4988303;28;20031;-77
2020/12/08 09:51:35;;;;;;;16.42;6.70;;;2.90;99.90;;;;;;4968182;28;20523;-77
2020/12/08 09:54:01;;;;;;;12.63;6.82;;;2.90;99.90;;;;;;4984323;28;20027;-77
2020/12/08 09:56:27;;;;;;;13.80;7.30;;;3.00;99.90;;;;;;4971846;28;20114;-77
2020/12/08 09:58:53;;;;;;;17.40;7.18;;;2.90;99.90;;;;;;4975204;28;20042;-77
2020/12/08 10:01:25;;;;;;;12.35;6.53;;;2.90;99.90;;;;;;4973949;28;20041;-77
2020/12/08 10:03:52;;;;;;;14.82;7.93;;;3.00;99.90;;;;;;4976596;28;20019;-77
2020/12/08 10:06:18;;;;;;;14.20;7.40;;;2.90;99.90;;;;;;4974584;28;20050;-76
2020/12/08 10:08:44;;;;;;;11.15;6.90;;;2.90;99.90;;;;;;4980596;28;20050;-78
2020/12/08 10:11:10;;;;;;;13.52;7.07;;;3.00;99.90;;;;;;4985542;28;20023;-76
2020/12/08 10:13:35;;;;;;;12.70;6.70;;;3.00;99.90;;;;;;4981135;28;20034;-80
2020/12/08 10:16:01;;;;;;;12.48;7.40;;;3.10;99.90;;;;;;4957087;28;20038;-79
2020/12/08 10:18:27;;;;;;;13.18;6.75;;;3.10;99.90;;;;;;4941578;28;20031;-79
2020/12/08 10:20:53;;;;;;;13.15;6.97;;;3.10;99.90;;;;;;4943020;28;20058;-79
2020/12/08 10:23:18;;;;;;;11.20;6.63;;;3.20;99.90;;;;;;4967320;28;20034;-78
2020/12/08 10:25:44;;;;;;;13.35;6.88;;;3.20;99.90;;;;;;4961142;28;20049;-79
2020/12/08 10:28:11;;;;;;;12.77;6.60;;;3.30;99.90;;;;;;4953578;28;20497;-82
2020/12/08 10:30:36;;;;;;;13.63;7.18;;;3.40;99.90;;;;;;4950924;28;20405;-78
2020/12/08 10:33:02;;;;;;;12.40;7.13;;;3.40;99.90;;;;;;4962793;28;20031;-82
2020/12/08 10:35:28;;;;;;;12.90;7.35;;;3.50;99.90;;;;;;4950222;28;20121;-81
2020/12/08 10:37:53;;;;;;;11.18;6.93;;;3.60;99.90;;;;;;4938426;28;20130;-81
2020/12/08 10:40:19;;;;;;;12.75;6.95;;;3.60;99.90;;;;;;4968474;28;20031;-83
2020/12/08 10:42:45;;;;;;;12.18;6.72;;;3.70;99.90;;;;;;4953332;28;20110;-81
2020/12/08 10:45:11;;;;;;;12.88;7.15;;;3.80;99.90;;;;;;4937709;28;20031;-82
2020/12/08 10:47:37;;;;;;;13.50;6.65;;;3.90;99.90;;;;;;4970799;28;20041;-80
2020/12/08 10:50:04;;;;;;;13.85;7.10;;;3.90;99.90;;;;;;4985375;28;20034;-82
2020/12/08 10:52:29;;;;;;;14.88;6.45;;;3.90;99.90;;;;;;4950083;28;20094;-82
2020/12/08 10:54:55;;;;;;;13.45;7.03;;;3.90;99.90;;;;;;4985467;28;20034;-81
2020/12/08 10:57:21;;;;;;;13.68;6.53;;;3.90;99.90;;;;;;4969435;28;20038;-78
2020/12/08 10:59:47;;;;;;;11.20;6.22;;;4.00;99.90;;;;;;4967313;28;20034;-81
2020/12/08 11:02:13;;;;;;;13.93;7.20;;;4.00;99.90;;;;;;4968134;28;20185;-79
2020/12/08 11:04:39;;;;;;;11.45;6.53;;;4.00;99.90;;;;;;4953173;28;20085;-80
2020/12/08 11:07:04;;;;;;;11.35;6.65;;;4.10;99.90;;;;;;4969764;28;20636;-79
2020/12/08 11:09:30;;;;;;;11.75;5.78;;;4.10;99.90;;;;;;4970121;28;20035;-79
2020/12/08 11:11:56;;;;;;;13.48;6.63;;;4.10;99.90;;;;;;4984427;28;20031;-80
2020/12/08 11:14:22;;;;;;;13.80;6.47;;;4.20;99.90;;;;;;4977158;28;20035;-79
2020/12/08 11:16:48;;;;;;;10.68;6.68;;;4.20;99.90;;;;;;4983285;28;20037;-79
2020/12/08 11:19:14;;;;;;;12.13;6.10;;;4.20;99.90;;;;;;4983314;28;20058;-77
2020/12/08 11:21:41;;;;;;;11.57;5.82;;;4.20;99.90;;;;;;4978157;28;20039;-79
2020/12/08 11:24:08;;;;;;;12.93;6.57;;;4.30;99.90;;;;;;4983389;28;20473;-79
2020/12/08 11:26:34;;;;;;;10.57;6.00;;;4.40;99.90;;;;;;4957230;28;20194;-79
2020/12/08 11:29:00;;;;;;;10.38;5.78;;;4.40;99.90;;;;;;4988517;28;20062;-80
2020/12/08 11:31:26;;;;;;;9.80;5.45;;;4.40;99.90;;;;;;4954514;28;20061;-79
2020/12/08 11:33:52;;;;;;;9.05;5.63;;;4.40;99.90;;;;;;4986214;28;20705;-79
2020/12/08 11:36:18;;;;;;;10.35;5.95;;;4.50;99.90;;;;;;4973635;28;20061;-81
2020/12/08 11:41:20;;;;;;;14.50;7.10;;;4.60;99.90;;;;;;5000960;28;20137;-75
2020/12/08 11:43:45;;;;;;;10.23;5.82;;;4.60;99.90;;;;;;5007872;28;20136;-74
2020/12/08 11:46:12;;;;;;;12.98;6.63;;;4.70;99.90;;;;;;4990624;28;20038;-74
2020/12/08 11:48:39;;;;;;;13.45;5.35;;;4.70;99.90;;;;;;4990680;28;20528;-74
2020/12/08 11:51:05;;;;;;;10.52;6.43;;;4.70;99.90;;;;;;5002521;28;20810;-74
2020/12/08 11:53:30;;;;;;;8.57;5.43;;;4.70;99.90;;;;;;5007364;28;20156;-74
2020/12/08 11:55:56;;;;;;;12.77;5.72;;;4.80;99.90;;;;;;5008076;28;20041;-74
2020/12/08 11:58:22;;;;;;;9.65;5.38;;;4.80;99.90;;;;;;4990204;28;20058;-74
2020/12/08 12:00:47;;;;;;;10.48;6.22;;;4.80;99.90;;;;;;5004072;28;20018;-75
2020/12/08 12:03:13;;;;;;;10.20;5.57;;;4.70;99.90;;;;;;4990336;28;20507;-75
2020/12/08 12:05:39;;;;;;;11.35;5.95;;;4.70;99.90;;;;;;5007764;28;20037;-74
2020/12/08 12:08:06;;;;;;;12.27;5.75;;;4.70;99.90;;;;;;4990384;28;20042;-74
2020/12/08 12:10:32;;;;;;;11.02;6.22;;;4.80;99.90;;;;;;4986633;28;20038;-75
2020/12/08 12:12:57;;;;;;;11.45;5.90;;;4.80;99.90;;;;;;5005394;28;20026;-75
2020/12/08 12:15:23;;;;;;;15.10;6.70;;;4.90;99.90;;;;;;5008211;28;20036;-74
2020/12/08 12:17:49;;;;;;;13.63;7.28;;;5.00;99.90;;;;;;4973755;28;20046;-75
2020/12/08 12:20:15;;;;;;;13.10;6.63;;;5.00;99.90;;;;;;5004692;28;20053;-75
2020/12/08 12:22:40;;;;;;;11.98;6.65;;;4.90;99.90;;;;;;4986210;28;20065;-75
2020/12/08 12:25:07;;;;;;;13.40;6.63;;;4.90;99.90;;;;;;5007177;28;20100;-75
2020/12/08 12:27:33;;;;;;;12.38;6.60;;;5.00;99.90;;;;;;5007491;28;20030;-75
2020/12/08 12:29:58;;;;;;;10.73;6.38;;;5.00;99.90;;;;;;4988766;28;20476;-75
2020/12/08 12:32:24;;;;;;;12.40;6.22;;;5.10;99.90;;;;;;5005614;28;20041;-75
2020/12/08 12:34:50;;;;;;;12.45;7.03;;;5.10;99.90;;;;;;5007441;28;20022;-75
2020/12/08 12:37:16;;;;;;;11.05;6.18;;;5.20;99.90;;;;;;5008169;28;20097;-75
2020/12/08 12:39:42;;;;;;;10.98;6.00;;;5.30;99.90;;;;;;4988670;28;20034;-75
2020/12/08 12:42:08;;;;;;;10.57;6.20;;;5.30;99.90;;;;;;5003730;28;20033;-75
2020/12/08 12:44:34;;;;;;;13.40;7.00;;;5.30;99.90;;;;;;5007789;28;20030;-75
2020/12/08 12:47:00;;;;;;;9.32;5.75;;;5.40;99.90;;;;;;5006579;28;20062;-75
2020/12/08 12:49:26;;;;;;;12.68;6.22;;;5.40;99.90;;;;;;5005729;28;20061;-75
2020/12/08 12:51:51;;;;;;;11.32;6.30;;;5.40;99.90;;;;;;4987992;28;20227;-75
2020/12/08 12:54:17;;;;;;;11.15;5.72;;;5.40;99.90;;;;;;5007011;28;20038;-75